Meteo Giornale » Osservazioni meteo Repubblica Ceca » Pardubice

ore: 20:00 - Osservazioni Meteo Pardubice
Lat. 50° 1' N Lon. 15° 44' E Alt. 226 metri s.l.m.

sereno

20 °C

Sereno

Temp. 24 Ore

14 °C

25 °C

Sud-Ovest

7.4 Km/h

Dew point 15 °C

Umidità 72 %

Visibilità  10 Km

Il sole sorge alle ore 06:10

Il sole tramonta alle ore 19:44

Data e Ora Cielo e Fenomeni T °C DP °C Um. % Pres. hPa Vis. km Vento km/h
Oggi h: 20:00 sereno Sereno 20 15 72 1015 10 SO 7.4
Oggi h: 19:00 sereno Sereno 23 14 56 1015 10 O/SO 11.1
Oggi h: 18:00 sereno Sereno 24 13 50 1015 10 O/SO 14.8
Oggi h: 17:00 poco_nuvoloso Poco Nuvoloso 25 13 47 1015 10 O 31.5
Oggi h: 16:00 nuvoloso Nuvoloso 24 15 57 1015 10 O 22.2
Oggi h: 15:00 nuvoloso Nuvoloso 24 16 60 1015 10 O 20.3
Oggi h: 14:00 nuvoloso Nuvoloso 23 18 73 1015 10 O 14.8
Oggi h: 13:00 molto_nuvoloso Molto Nuvoloso 20 17 82 1016 10 O 7.4
Oggi h: 12:00 molto_nuvoloso Molto Nuvoloso 18 16 88 1016 10 N 3.7
Oggi h: 11:00 coperto_pioggia Pioggia 17 16 93 1016 10 O 7.4
Oggi h: 10:00 nuvoloso_temporali Temporale 17 16 93 1016 4 O 31.5
Oggi h: 09:00 sereno Sereno 18 15 82 1013 10 N 3.7
Oggi h: 08:00 sereno Sereno 16 14 87 1014 10 N 1.8
Oggi h: 07:00 sereno Sereno 15 14 93 1014 10 N 3.7
Oggi h: 06:00 sereno Sereno 14 13 93 1014 10 N 3.7
Oggi h: 05:00 sereno Sereno 14 14 100 1014 10 N 3.7
Oggi h: 04:00 sereno Sereno 15 14 93 1014 10 N 0
Oggi h: 03:00 sereno Sereno 16 14 87 1015 10 N 5.5
Oggi h: 02:00 sereno Sereno 17 15 88 1015 10 N 5.5
Oggi h: 01:00 sereno Sereno 17 14 82 1015 10 N 3.7
Oggi h: 00:00 sereno Sereno 18 15 82 1015 10 N 0
Ieri h: 23:00 sereno Sereno 19 15 77 1015 10 N 0
Ieri h: 22:00 sereno Sereno 19 15 77 1015 10 N 1.8
Ieri h: 21:00 sereno Sereno 20 14 68 1015 10 N 1.8